createdAt,value
2019-06-01T00:00:25.388Z,15.10
2019-06-01T00:02:56.395Z,15.20
2019-06-01T00:05:22.957Z,15.30
2019-06-01T00:07:49.714Z,15.40
2019-06-01T00:10:16.133Z,15.50
2019-06-01T00:12:43.498Z,15.70
2019-06-01T00:15:10.124Z,15.80
2019-06-01T00:17:36.567Z,15.80
2019-06-01T00:20:06.300Z,15.80
2019-06-01T00:22:32.633Z,15.90
2019-06-01T00:24:59.287Z,15.90
2019-06-01T00:27:25.744Z,15.90
2019-06-01T00:29:53.195Z,15.80
2019-06-01T00:32:19.613Z,15.70
2019-06-01T00:34:46.086Z,15.70
2019-06-01T00:37:13.535Z,15.70
2019-06-01T00:39:39.867Z,15.70
2019-06-01T00:42:06.203Z,15.70
2019-06-01T00:44:32.560Z,15.70
2019-06-01T00:46:58.899Z,15.70
2019-06-01T00:49:25.219Z,15.80
2019-06-01T00:51:53.759Z,15.80
2019-06-01T00:54:20.342Z,15.80
2019-06-01T00:56:47.416Z,15.70
2019-06-01T00:59:13.829Z,15.70
2019-06-01T01:01:40.497Z,15.70
2019-06-01T01:04:06.843Z,15.70
2019-06-01T01:06:33.194Z,15.70
2019-06-01T01:08:59.498Z,15.80
2019-06-01T01:11:26.253Z,15.80
2019-06-01T01:13:53.557Z,15.90
2019-06-01T01:16:21.476Z,15.90
2019-06-01T01:18:47.862Z,16.00
2019-06-01T01:21:14.177Z,15.90
2019-06-01T01:23:40.560Z,15.90
2019-06-01T01:26:06.892Z,15.90
2019-06-01T01:28:33.223Z,16.00
2019-06-01T01:31:12.407Z,16.00
2019-06-01T01:33:27.777Z,16.10
2019-06-01T01:35:54.218Z,16.20
2019-06-01T01:38:20.635Z,16.20
2019-06-01T01:40:47.946Z,16.20
2019-06-01T01:43:14.476Z,16.20
2019-06-01T01:45:41.438Z,16.20
2019-06-01T01:48:07.762Z,16.00
2019-06-01T01:50:34.149Z,15.80
2019-06-01T01:53:00.554Z,15.80
2019-06-01T01:55:26.886Z,15.90
2019-06-01T01:57:53.349Z,16.00
2019-06-01T02:00:34.272Z,16.00
2019-06-01T02:03:02.176Z,16.00
2019-06-01T02:05:28.728Z,16.00
2019-06-01T02:07:55.094Z,15.90
2019-06-01T02:10:21.885Z,16.00
2019-06-01T02:12:48.229Z,16.00
2019-06-01T02:15:17.191Z,16.10
2019-06-01T02:17:43.541Z,16.10
2019-06-01T02:20:10.125Z,16.20
2019-06-01T02:22:36.439Z,16.10
2019-06-01T02:25:04.576Z,16.10
2019-06-01T02:27:30.892Z,16.10
2019-06-01T02:29:57.530Z,16.10
2019-06-01T02:32:23.897Z,16.00
2019-06-01T02:34:50.213Z,16.00
2019-06-01T02:37:16.538Z,16.10
2019-06-01T02:39:43.146Z,16.20
2019-06-01T02:42:11.513Z,16.20
2019-06-01T02:44:37.887Z,16.20
2019-06-01T02:47:06.203Z,16.20
2019-06-01T02:49:32.477Z,16.10
2019-06-01T02:51:59.315Z,16.20
2019-06-01T02:54:25.817Z,16.20
2019-06-01T02:56:52.146Z,16.10
2019-06-01T02:59:18.503Z,16.10
2019-06-01T03:01:56.671Z,16.10
2019-06-01T03:04:13.987Z,16.10
2019-06-01T03:06:42.416Z,16.10
2019-06-01T03:09:09.660Z,16.20
2019-06-01T03:11:38.256Z,16.20
2019-06-01T03:14:08.802Z,16.20
2019-06-01T03:16:41.507Z,16.20
2019-06-01T03:19:08.128Z,16.30
2019-06-01T03:21:35.355Z,16.40
2019-06-01T03:24:10.254Z,16.30
2019-06-01T03:26:41.051Z,16.40
2019-06-01T03:29:12.583Z,16.40
2019-06-01T03:31:39.112Z,16.30
2019-06-01T03:34:06.881Z,16.20
2019-06-01T03:36:33.668Z,16.40
2019-06-01T03:39:02.085Z,16.40
2019-06-01T03:41:30.495Z,16.30
2019-06-01T03:43:57.143Z,16.10
2019-06-01T03:46:23.620Z,16.10
2019-06-01T03:48:51.180Z,16.10
2019-06-01T03:51:17.531Z,16.20
2019-06-01T03:53:43.872Z,16.30
2019-06-01T03:56:11.092Z,16.40
2019-06-01T03:58:37.589Z,16.40
2019-06-01T04:01:05.233Z,16.60
2019-06-01T04:03:31.645Z,16.70
2019-06-01T04:05:57.945Z,16.80
2019-06-01T04:08:24.268Z,16.80
2019-06-01T04:10:50.621Z,16.80
2019-06-01T04:13:17.005Z,16.80
2019-06-01T04:15:43.430Z,16.80
2019-06-01T04:18:10.264Z,16.80
2019-06-01T04:20:36.729Z,16.90
2019-06-01T04:23:04.581Z,17.30
2019-06-01T04:25:31.908Z,17.30
2019-06-01T04:27:58.441Z,17.10
2019-06-01T04:30:25.810Z,17.20
2019-06-01T04:32:52.175Z,17.30
2019-06-01T04:35:18.532Z,17.10
2019-06-01T04:37:45.256Z,17.10
2019-06-01T04:40:11.601Z,17.10
2019-06-01T04:42:37.940Z,17.20
2019-06-01T04:45:09.025Z,17.30
2019-06-01T04:47:35.495Z,17.50
2019-06-01T04:50:04.673Z,17.60
2019-06-01T04:52:37.044Z,17.80
2019-06-01T04:55:11.106Z,17.80
2019-06-01T04:57:38.926Z,17.80
2019-06-01T05:00:15.564Z,17.90
2019-06-01T05:02:34.533Z,18.00
2019-06-01T05:05:01.157Z,18.00
2019-06-01T05:07:27.492Z,18.10
2019-06-01T05:09:53.814Z,18.40
2019-06-01T05:12:23.975Z,18.30
2019-06-01T05:14:50.294Z,18.50
2019-06-01T05:17:16.869Z,18.60
2019-06-01T05:19:43.391Z,18.80
2019-06-01T05:22:10.499Z,19.10
2019-06-01T05:24:36.955Z,19.20
2019-06-01T05:27:03.283Z,19.20
2019-06-01T05:29:29.644Z,19.40
2019-06-01T05:31:56.018Z,19.60
2019-06-01T05:34:22.352Z,19.80
2019-06-01T05:36:48.785Z,19.80
2019-06-01T05:39:16.315Z,20.00
2019-06-01T05:41:42.926Z,20.20
2019-06-01T05:44:11.130Z,20.30
2019-06-01T05:46:38.051Z,20.60
2019-06-01T05:49:04.429Z,20.90
2019-06-01T05:51:30.785Z,20.70
2019-06-01T05:53:57.113Z,21.00
2019-06-01T05:56:23.758Z,21.00
2019-06-01T05:58:51.152Z,20.90
2019-06-01T06:01:19.663Z,21.10
2019-06-01T06:03:45.758Z,20.80
2019-06-01T06:06:12.051Z,21.00
2019-06-01T06:08:38.450Z,21.40
2019-06-01T06:11:05.122Z,21.50
2019-06-01T06:13:31.481Z,21.50
2019-06-01T06:15:57.970Z,21.60
2019-06-01T06:18:24.366Z,21.80
2019-06-01T06:20:50.753Z,22.00
2019-06-01T06:23:18.486Z,22.10
2019-06-01T06:25:44.919Z,22.00
2019-06-01T06:28:12.573Z,22.20
2019-06-01T06:30:38.950Z,22.10
2019-06-01T06:33:05.320Z,21.90
2019-06-01T06:35:31.653Z,22.30
2019-06-01T06:37:58.006Z,22.60
2019-06-01T06:40:24.682Z,22.70
2019-06-01T06:42:51.003Z,22.90
2019-06-01T06:45:45.502Z,23.00
2019-06-01T06:48:11.868Z,23.00
2019-06-01T06:50:38.194Z,23.20
2019-06-01T06:53:04.518Z,23.50
2019-06-01T06:55:30.849Z,23.60
2019-06-01T06:57:57.239Z,23.60
2019-06-01T07:00:25.039Z,23.40
2019-06-01T07:02:51.529Z,23.60
2019-06-01T07:05:19.198Z,23.80
2019-06-01T07:07:45.793Z,23.80
2019-06-01T07:10:12.418Z,23.90
2019-06-01T07:12:38.824Z,24.00
2019-06-01T07:15:05.441Z,23.80
2019-06-01T07:17:31.931Z,23.80
2019-06-01T07:19:58.872Z,24.00
2019-06-01T07:22:32.117Z,24.20
2019-06-01T07:25:06.539Z,24.40
2019-06-01T07:27:32.854Z,24.60
2019-06-01T07:29:59.177Z,24.30
2019-06-01T07:32:26.682Z,24.50
2019-06-01T07:34:53.516Z,24.70
2019-06-01T07:37:20.636Z,25.10
2019-06-01T07:39:47.221Z,25.40
2019-06-01T07:42:13.581Z,25.60
2019-06-01T07:44:39.910Z,25.70
2019-06-01T07:47:06.298Z,25.80
2019-06-01T07:49:32.682Z,26.10
2019-06-01T07:52:11.157Z,26.40
2019-06-01T07:54:28.506Z,26.50
2019-06-01T07:56:54.918Z,26.40
2019-06-01T07:59:21.523Z,26.00
2019-06-01T08:01:49.110Z,25.50
2019-06-01T08:04:15.467Z,25.60
2019-06-01T08:06:46.123Z,25.70
2019-06-01T08:09:10.026Z,25.60
2019-06-01T08:11:36.353Z,25.40
2019-06-01T08:14:02.988Z,24.80
2019-06-01T08:16:29.952Z,25.30
2019-06-01T08:18:56.385Z,25.60
2019-06-01T08:21:23.892Z,25.70
2019-06-01T08:24:06.241Z,25.60
2019-06-01T08:26:32.760Z,25.40
2019-06-01T08:28:59.604Z,25.20
2019-06-01T08:31:26.642Z,24.90
2019-06-01T08:33:53.041Z,24.80
2019-06-01T08:36:25.683Z,25.10
2019-06-01T08:38:52.008Z,25.40
2019-06-01T08:41:18.487Z,25.40
2019-06-01T08:43:44.804Z,26.00
2019-06-01T08:46:11.292Z,26.70
2019-06-01T08:48:37.706Z,26.40
2019-06-01T08:51:03.998Z,26.60
2019-06-01T08:53:30.626Z,26.50
2019-06-01T08:55:56.965Z,26.30
2019-06-01T08:58:24.182Z,26.30
2019-06-01T09:00:50.817Z,26.20
2019-06-01T09:03:17.117Z,26.20
2019-06-01T09:05:43.460Z,26.00
2019-06-01T09:08:09.773Z,26.50
2019-06-01T09:10:36.131Z,26.70
2019-06-01T09:13:02.568Z,26.70
2019-06-01T09:15:29.757Z,26.30
2019-06-01T09:17:56.285Z,26.20
2019-06-01T09:20:22.637Z,26.00
2019-06-01T09:22:48.981Z,25.90
2019-06-01T09:25:15.417Z,26.00
2019-06-01T09:27:41.747Z,26.20
2019-06-01T09:30:08.859Z,26.10
2019-06-01T09:32:36.507Z,26.20
2019-06-01T09:35:04.776Z,26.00
2019-06-01T09:37:48.614Z,26.00
2019-06-01T09:40:15.215Z,26.00
2019-06-01T09:42:41.543Z,25.70
2019-06-01T09:45:09.100Z,26.30
2019-06-01T09:47:35.674Z,26.50
2019-06-01T09:50:03.437Z,26.60
2019-06-01T09:52:29.914Z,26.20
2019-06-01T09:54:56.280Z,26.30
2019-06-01T09:57:22.605Z,26.20
2019-06-01T09:59:48.984Z,26.30
2019-06-01T10:02:15.469Z,26.30
2019-06-01T10:04:43.231Z,25.90
2019-06-01T10:07:09.747Z,26.00
2019-06-01T10:09:36.186Z,26.00
2019-06-01T10:12:03.450Z,26.00
2019-06-01T10:14:30.093Z,26.40
2019-06-01T10:16:56.661Z,26.50
2019-06-01T10:19:23.139Z,26.10
2019-06-01T10:21:49.605Z,26.00
2019-06-01T10:24:17.436Z,26.30
2019-06-01T10:26:43.793Z,26.00
2019-06-01T10:29:10.162Z,26.00
2019-06-01T10:31:41.088Z,26.40
2019-06-01T10:34:05.947Z,26.70
2019-06-01T10:36:32.264Z,26.30
2019-06-01T10:38:58.630Z,26.10
2019-06-01T10:41:24.980Z,26.20
2019-06-01T10:43:52.451Z,26.20
2019-06-01T10:46:19.460Z,25.90
2019-06-01T10:48:45.846Z,25.80
2019-06-01T10:51:12.209Z,26.40
2019-06-01T10:53:38.541Z,26.70
2019-06-01T10:56:04.885Z,26.60
2019-06-01T10:58:32.253Z,26.80
2019-06-01T11:00:58.728Z,27.10
2019-06-01T11:03:25.078Z,26.80
2019-06-01T11:05:51.392Z,26.70
2019-06-01T11:08:25.039Z,26.60
2019-06-01T11:10:51.373Z,26.50
2019-06-01T11:13:17.780Z,27.10
2019-06-01T11:15:48.186Z,27.40
2019-06-01T11:18:16.441Z,27.40
2019-06-01T11:20:43.726Z,27.80
2019-06-01T11:23:10.279Z,28.10
2019-06-01T11:25:37.591Z,28.10
2019-06-01T11:28:04.079Z,28.00
2019-06-01T11:30:33.741Z,28.30
2019-06-01T11:33:00.114Z,28.40
2019-06-01T11:35:26.452Z,28.20
2019-06-01T11:37:52.855Z,28.50
2019-06-01T11:40:19.203Z,28.70
2019-06-01T11:42:45.590Z,28.50
2019-06-01T11:45:12.120Z,28.40
2019-06-01T11:47:38.948Z,28.30
2019-06-01T11:50:08.365Z,28.10
2019-06-01T11:52:35.007Z,28.00
2019-06-01T11:55:02.252Z,29.50
2019-06-01T11:57:28.636Z,31.00
2019-06-01T11:59:58.095Z,31.80
2019-06-01T12:02:24.692Z,32.50
2019-06-01T12:04:51.030Z,32.90
2019-06-01T12:07:18.473Z,33.90
2019-06-01T12:09:46.075Z,34.80
2019-06-01T12:12:12.543Z,35.50
2019-06-01T12:14:40.238Z,34.70
2019-06-01T12:17:06.737Z,34.80
2019-06-01T12:19:33.414Z,35.60
2019-06-01T12:21:59.717Z,35.60
2019-06-01T12:24:27.136Z,34.30
2019-06-01T12:26:53.858Z,32.70
2019-06-01T12:29:20.174Z,30.80
2019-06-01T12:31:48.164Z,29.80
2019-06-01T12:34:15.578Z,29.10
2019-06-01T12:36:42.666Z,29.30
2019-06-01T12:39:09.276Z,29.60
2019-06-01T12:41:35.592Z,29.50
2019-06-01T12:44:07.862Z,29.30
2019-06-01T12:46:34.454Z,29.40
2019-06-01T12:49:00.941Z,29.50
2019-06-01T12:51:27.313Z,29.80
2019-06-01T12:53:54.974Z,29.90
2019-06-01T12:56:21.261Z,30.10
2019-06-01T12:58:48.228Z,30.10
2019-06-01T13:01:14.703Z,30.40
2019-06-01T13:03:41.195Z,30.40
2019-06-01T13:06:07.605Z,30.70
2019-06-01T13:08:34.120Z,31.10
2019-06-01T13:11:00.544Z,31.20
2019-06-01T13:13:26.886Z,31.30
2019-06-01T13:15:53.692Z,31.70
2019-06-01T13:18:20.862Z,31.60
2019-06-01T13:20:47.699Z,31.40
2019-06-01T13:23:14.237Z,31.50
2019-06-01T13:25:41.440Z,31.50
2019-06-01T13:28:07.940Z,31.60
2019-06-01T13:30:34.651Z,31.00
2019-06-01T13:33:00.993Z,30.20
2019-06-01T13:35:27.340Z,30.40
2019-06-01T13:38:10.896Z,30.70
2019-06-01T13:40:22.037Z,31.20
2019-06-01T13:42:49.104Z,31.50
2019-06-01T13:45:16.511Z,31.60
2019-06-01T13:47:43.390Z,31.10
2019-06-01T13:50:10.613Z,31.10
2019-06-01T13:52:37.042Z,31.50
2019-06-01T13:55:05.284Z,31.40
2019-06-01T13:57:31.708Z,31.20
2019-06-01T13:59:58.177Z,31.40
2019-06-01T14:02:24.608Z,31.50
2019-06-01T14:04:52.146Z,31.50
2019-06-01T14:07:19.151Z,31.70
2019-06-01T14:09:45.522Z,33.40
2019-06-01T14:12:11.919Z,35.80
2019-06-01T14:14:38.246Z,37.10
2019-06-01T14:17:04.562Z,39.20
2019-06-01T14:19:30.954Z,40.20
2019-06-01T14:21:57.323Z,40.90
2019-06-01T14:24:23.664Z,40.50
2019-06-01T14:26:50.142Z,39.70
2019-06-01T14:29:16.848Z,41.40
2019-06-01T14:31:43.176Z,41.30
2019-06-01T14:34:15.430Z,41.00
2019-06-01T14:36:48.543Z,39.30
2019-06-01T14:39:15.138Z,39.10
2019-06-01T14:41:42.137Z,38.50
2019-06-01T14:44:08.511Z,39.90
2019-06-01T14:46:34.853Z,40.90
2019-06-01T14:49:01.250Z,41.50
2019-06-01T14:51:27.619Z,41.50
2019-06-01T14:53:55.796Z,42.20
2019-06-01T14:56:22.354Z,40.80
2019-06-01T14:58:49.815Z,37.30
2019-06-01T15:01:31.494Z,38.50
2019-06-01T15:03:44.622Z,40.30
2019-06-01T15:06:10.970Z,42.10
2019-06-01T15:08:37.696Z,42.60
2019-06-01T15:11:04.025Z,41.20
2019-06-01T15:13:30.476Z,41.20
2019-06-01T15:15:57.654Z,40.60
2019-06-01T15:18:24.027Z,40.30
2019-06-01T15:20:51.682Z,40.90
2019-06-01T15:23:18.163Z,41.20
2019-06-01T15:25:44.565Z,41.60
2019-06-01T15:28:10.878Z,41.50
2019-06-01T15:30:37.233Z,41.40
2019-06-01T15:33:04.651Z,41.10
2019-06-01T15:35:31.300Z,40.60
2019-06-01T15:38:01.457Z,40.00
2019-06-01T15:40:25.876Z,39.50
2019-06-01T15:42:53.528Z,38.40
2019-06-01T15:45:20.149Z,38.70
2019-06-01T15:47:46.470Z,38.40
2019-06-01T15:50:13.423Z,38.60
2019-06-01T15:52:39.736Z,39.20
2019-06-01T15:55:13.496Z,38.70
2019-06-01T15:57:40.225Z,39.10
2019-06-01T16:00:08.337Z,39.60
2019-06-01T16:02:34.730Z,39.80
2019-06-01T16:05:01.452Z,40.00
2019-06-01T16:07:28.284Z,40.60
2019-06-01T16:09:55.387Z,40.50
2019-06-01T16:12:21.852Z,40.00
2019-06-01T16:14:48.215Z,39.90
2019-06-01T16:17:14.533Z,40.60
2019-06-01T16:19:40.976Z,40.60
2019-06-01T16:22:07.294Z,40.50
2019-06-01T16:24:34.774Z,39.50
2019-06-01T16:27:01.131Z,37.50
2019-06-01T16:29:27.873Z,37.90
2019-06-01T16:31:54.670Z,39.00
2019-06-01T16:34:21.058Z,39.30
2019-06-01T16:36:47.763Z,38.60
2019-06-01T16:39:14.421Z,38.40
2019-06-01T16:41:40.911Z,38.40
2019-06-01T16:44:07.227Z,38.30
2019-06-01T16:50:28.801Z,37.40
2019-06-01T16:52:55.861Z,37.90
2019-06-01T16:55:22.348Z,38.30
2019-06-01T16:57:48.705Z,38.40
2019-06-01T17:00:16.029Z,38.30
2019-06-01T17:02:42.475Z,37.70
2019-06-01T17:05:10.714Z,38.00
2019-06-01T17:07:37.085Z,37.60
2019-06-01T17:10:21.623Z,37.50
2019-06-01T17:12:42.930Z,37.60
2019-06-01T17:15:07.132Z,37.50
2019-06-01T17:17:33.787Z,38.00
2019-06-01T17:20:01.153Z,38.60
2019-06-01T17:22:27.579Z,38.60
2019-06-01T17:24:54.439Z,38.50
2019-06-01T17:27:20.780Z,38.20
2019-06-01T17:29:47.118Z,38.70
2019-06-01T17:32:23.806Z,38.50
2019-06-01T17:34:41.671Z,37.50
2019-06-01T17:37:08.955Z,36.90
2019-06-01T17:39:35.425Z,36.90
2019-06-01T17:42:02.451Z,36.70
2019-06-01T17:44:29.164Z,36.60
2019-06-01T17:46:55.511Z,37.00
2019-06-01T17:49:21.842Z,37.30
2019-06-01T17:51:48.203Z,37.40
2019-06-01T17:54:14.541Z,37.10
2019-06-01T17:56:41.272Z,36.80
2019-06-01T17:59:07.606Z,36.40
2019-06-01T18:01:33.921Z,35.80
2019-06-01T18:04:01.698Z,35.20
2019-06-01T18:06:28.498Z,35.00
2019-06-01T18:08:55.252Z,34.70
2019-06-01T18:11:21.603Z,34.80
2019-06-01T18:13:48.418Z,35.00
2019-06-01T18:16:14.873Z,34.80
2019-06-01T18:18:42.302Z,34.20
2019-06-01T18:21:08.676Z,33.40
2019-06-01T18:23:35.192Z,32.10
2019-06-01T18:26:02.532Z,30.90
2019-06-01T18:28:29.076Z,29.80
2019-06-01T18:30:55.573Z,28.90
2019-06-01T18:33:22.031Z,28.30
2019-06-01T18:35:48.393Z,27.80
2019-06-01T18:38:14.963Z,27.60
2019-06-01T18:40:41.683Z,27.30
2019-06-01T18:43:14.137Z,27.00
2019-06-01T18:45:41.810Z,26.50
2019-06-01T18:52:14.782Z,25.50
2019-06-01T18:54:41.358Z,24.90
2019-06-01T18:57:19.322Z,24.90
2019-06-01T18:59:41.682Z,24.80
2019-06-01T19:02:08.435Z,24.70
2019-06-01T19:04:34.904Z,24.40
2019-06-01T19:07:01.394Z,24.20
2019-06-01T19:09:27.722Z,24.00
2019-06-01T19:11:54.077Z,23.80
2019-06-01T19:14:20.829Z,23.70
2019-06-01T19:16:48.506Z,23.70
2019-06-01T19:19:14.988Z,23.40
2019-06-01T19:21:59.575Z,23.40
2019-06-01T19:24:25.935Z,23.30
2019-06-01T19:26:52.316Z,23.10
2019-06-01T19:29:22.295Z,23.10
2019-06-01T19:31:49.366Z,23.00
2019-06-01T19:34:17.125Z,22.90
2019-06-01T19:36:45.147Z,22.70
2019-06-01T19:39:11.509Z,22.60
2019-06-01T19:41:44.760Z,22.50
2019-06-01T19:44:07.735Z,22.40
2019-06-01T19:46:34.302Z,22.20
2019-06-01T19:49:01.748Z,22.00
2019-06-01T19:51:28.082Z,22.00
2019-06-01T19:54:02.203Z,21.80
2019-06-01T19:56:28.648Z,21.70
2019-06-01T19:58:58.557Z,21.50
2019-06-01T20:01:25.275Z,21.40
2019-06-01T20:03:52.021Z,21.20
2019-06-01T20:06:18.931Z,21.10
2019-06-01T20:08:47.909Z,21.00
2019-06-01T20:11:15.105Z,20.90
2019-06-01T20:13:41.831Z,20.80
2019-06-01T20:16:08.224Z,20.80
2019-06-01T20:18:34.573Z,20.70
2019-06-01T20:21:01.338Z,20.70
2019-06-01T20:23:27.771Z,20.70
2019-06-01T20:25:54.107Z,20.60
2019-06-01T20:28:21.706Z,20.60
2019-06-01T20:30:48.458Z,20.60
2019-06-01T20:33:15.965Z,20.40
2019-06-01T20:35:43.691Z,20.30
2019-06-01T20:38:10.213Z,20.20
2019-06-01T20:40:36.593Z,20.10
2019-06-01T20:43:03.462Z,20.10
2019-06-01T20:45:35.382Z,19.90
2019-06-01T20:48:01.934Z,20.00
2019-06-01T20:50:32.342Z,19.90
2019-06-01T20:52:58.840Z,19.90
2019-06-01T20:55:25.509Z,19.80
2019-06-01T20:57:55.055Z,19.80
2019-06-01T21:00:21.768Z,19.70
2019-06-01T21:02:48.570Z,19.60
2019-06-01T21:05:15.840Z,19.60
2019-06-01T21:07:43.657Z,19.50
2019-06-01T21:10:10.897Z,19.50
2019-06-01T21:12:44.693Z,19.50
2019-06-01T21:15:07.104Z,19.40
2019-06-01T21:17:33.423Z,19.30
2019-06-01T21:20:04.370Z,19.30
2019-06-01T21:22:28.109Z,19.30
2019-06-01T21:24:54.461Z,19.20
2019-06-01T21:27:20.830Z,19.20
2019-06-01T21:29:47.193Z,19.20
2019-06-01T21:32:15.120Z,19.20
2019-06-01T21:34:41.733Z,19.20
2019-06-01T21:37:08.093Z,19.20
2019-06-01T21:39:34.726Z,19.20
2019-06-01T21:42:01.161Z,19.30
2019-06-01T21:44:27.522Z,19.20
2019-06-01T21:46:53.848Z,19.20
2019-06-01T21:49:20.575Z,19.10
2019-06-01T21:51:48.097Z,19.10
2019-06-01T21:54:14.425Z,19.00
2019-06-01T21:56:40.748Z,19.00
2019-06-01T21:59:07.101Z,18.90
2019-06-01T22:01:33.446Z,19.00
2019-06-01T22:04:00.087Z,19.00
2019-06-01T22:06:27.700Z,19.00
2019-06-01T22:08:54.246Z,19.00
2019-06-01T22:11:21.550Z,18.90
2019-06-01T22:13:48.302Z,18.80
2019-06-01T22:16:14.647Z,18.80
2019-06-01T22:18:40.975Z,18.80
2019-06-01T22:21:07.408Z,18.80
2019-06-01T22:23:33.756Z,18.70
2019-06-01T22:26:00.146Z,18.70
2019-06-01T22:28:26.484Z,18.70
2019-06-01T22:30:52.837Z,18.70
2019-06-01T22:33:20.123Z,18.70
2019-06-01T22:35:47.683Z,18.70
2019-06-01T22:38:14.043Z,18.70
2019-06-01T22:40:40.405Z,18.60
2019-06-01T22:43:06.737Z,18.40
2019-06-01T22:45:33.489Z,18.40
2019-06-01T22:48:00.201Z,18.40
2019-06-01T22:50:27.009Z,18.40
2019-06-01T22:52:53.802Z,18.40
2019-06-01T22:55:20.163Z,18.40
2019-06-01T22:57:46.592Z,18.40
2019-06-01T23:00:14.264Z,18.50
2019-06-01T23:02:40.946Z,18.40
2019-06-01T23:05:07.497Z,18.30
2019-06-01T23:07:33.832Z,18.30
2019-06-01T23:10:00.169Z,18.30
2019-06-01T23:12:27.618Z,18.20
2019-06-01T23:14:54.465Z,18.20
2019-06-01T23:17:21.526Z,18.20
2019-06-01T23:19:47.987Z,18.20
2019-06-01T23:22:14.373Z,18.30
2019-06-01T23:24:40.811Z,18.20
2019-06-01T23:27:07.196Z,18.20
2019-06-01T23:29:33.513Z,18.00
2019-06-01T23:31:59.869Z,17.90
2019-06-01T23:35:24.380Z,17.70
2019-06-01T23:37:50.831Z,17.70
2019-06-01T23:40:17.177Z,17.70
2019-06-01T23:42:43.909Z,17.80
2019-06-01T23:45:10.997Z,17.80
2019-06-01T23:47:37.358Z,17.80
2019-06-01T23:50:05.490Z,17.70
2019-06-01T23:52:31.897Z,17.80
2019-06-01T23:54:58.222Z,17.50
2019-06-01T23:57:25.486Z,17.30
2019-06-01T23:59:52.053Z,17.40
